Erdman, Pennsylvania
Current Conditions -  °F | °C
As of 4:53 PM on Tuesday 21 Oct 2014 (Local Time) from KSEG Reporting Station
Overcast Overcast  
Wind Chill: 62°   Ceiling: 10000
Heat Index: 62°   Visibility: 10mi
Dew Point: 47°   Wind: 5mph
Humidity: 58%   Direction: 40°NE
Pressure: 29.84"   Gusts: NA
Location:  40.6198°N, 76.7286°W
Report Text: KSEG 212053Z AUTO 04004KT 10SM SCT055 OVC100 17/08 A2984 RMK AO2 SLP105 T01670083 55002
Loading
Personal Weather Stations






























Interactive Weather Map
Tropical Storm Tracking
New forecast layout! Learn more

10-Day Weather Forecast

Advertisements
Track Severe Weather on mobile